Flight Track Log - Related Links

Times and Time Zones

All times are in EDT time to prevent confusion due to time zone crossing. See the FSR411 flight status page for this flight to view local times or setup timezone preferences in your user account.

Time Position Orientation Groundspeed Altitude Reporting Facility
EDT Latitude Longitude Course Direction KTS MPH feet Rate Location/Type
Thu 08:51:00 AM 40.3732 -87.2772 239° Southwest  Level Estimated
Thu 08:52:00 AM 40.3128 -87.3952 236° Southwest  Level Estimated
Thu 08:53:00 AM 40.2522 -87.5130 236° Southwest  Level Estimated
Thu 08:54:00 AM 40.1916 -87.6306 236° Southwest  Level Estimated
Thu 08:55:00 AM 40.1308 -87.7480 236° Southwest  Level Estimated
Thu 08:56:00 AM 40.0699 -87.8652 236° Southwest  Level Estimated
Thu 08:57:00 AM 40.0088 -87.9822 236° Southwest  Level Estimated
Thu 08:58:00 AM 39.9477 -88.0989 236° Southwest  Level Estimated
Thu 08:59:00 AM 39.8864 -88.2155 236° Southwest  Level Estimated
Thu 09:00:00 AM 39.8251 -88.3318 236° Southwest  Level Estimated
Thu 09:01:00 AM 39.7635 -88.4480 235° Southwest  Level Estimated
Thu 09:02:00 AM 39.7019 -88.5639 235° Southwest  Level Estimated
Thu 09:03:00 AM 39.6402 -88.6796 235° Southwest  Level Estimated
Thu 09:04:00 AM 39.5784 -88.7952 235° Southwest  Level Estimated
Thu 09:05:00 AM 39.5164 -88.9105 235° Southwest  Level Estimated
Thu 09:06:00 AM 39.4543 -89.0256 235° Southwest  Level Estimated
Thu 09:07:00 AM 39.3922 -89.1405 235° Southwest  Level Estimated
Thu 09:08:00 AM 39.3299 -89.2552 235° Southwest  Level Estimated
Thu 09:09:00 AM 39.2674 -89.3697 235° Southwest  Level Estimated
Thu 09:10:00 AM 39.2049 -89.4840 235° Southwest  Level Estimated
Thu 09:11:00 AM 39.1423 -89.5980 235° Southwest  Level Estimated
Thu 09:12:00 AM 39.0796 -89.7119 235° Southwest  Level Estimated
Thu 09:13:00 AM 39.0167 -89.8256 235° Southwest  Level Estimated
Thu 09:14:00 AM 38.9538 -89.9391 235° Southwest  Level Estimated
Thu 09:15:00 AM 38.8907 -90.0524 234° Southwest  Level Estimated
Thu 09:16:00 AM 38.8275 -90.1654 234° Southwest  Level Estimated
Thu 09:17:00 AM 38.7642 -90.2783 234° Southwest  Level Estimated
Thu 09:18:00 AM 38.7008 -90.3910 234° Southwest  Level Estimated
Thu 09:19:00 AM 38.6373 -90.5034 234° Southwest  Level Estimated
Thu 09:20:00 AM 38.5737 -90.6157 234° Southwest  Level Estimated
Thu 09:21:00 AM 38.5100 -90.7278 234° Southwest  Level Estimated
Thu 09:22:00 AM 38.4467 -90.8387 234° Southwest  Level Estimated
Thu 09:23:00 AM 38.3833 -90.9494 234° Southwest  Level Estimated
Thu 09:23:11 AM 38.3164 -90.6356 234° Southwest 409 471 40,000  Level Kansas Center
Thu 09:24:00 AM 38.3198 -91.0599 234° Southwest  Level Estimated
Thu 09:24:13 AM 38.2525 -90.7547 236° Southwest 408 470 40,000  Level Kansas Center
Thu 09:25:00 AM 38.2572 -91.1686 234° Southwest  Level Estimated
Thu 09:25:15 AM 38.1900 -90.8739 236° Southwest 406 467 40,000  Level Kansas Center
Thu 09:26:00 AM 38.1945 -91.2771 234° Southwest  Level Estimated
Thu 09:26:17 AM 38.1278 -90.9894 236° Southwest 401 461 40,000  Level Kansas Center
Thu 09:27:00 AM 38.1317 -91.3854 234° Southwest  Level Estimated
Thu 09:27:18 AM 38.0611 -91.1108 235° Southwest 399 459 40,000  Level Kansas Center
Thu 09:28:00 AM 38.0687 -91.4934 234° Southwest  Level Estimated
Thu 09:28:20 AM 37.9992 -91.2261 236° Southwest 396 456 40,000  Level Kansas Center
Thu 09:29:22 AM 37.9369 -91.3408 236° Southwest 395 455 40,000  Level Kansas Center
Thu 09:30:24 AM 37.8628 -91.4800 236° Southwest 395 455 40,000  Level Kansas Center
Thu 09:31:25 AM 37.8008 -91.5944 236° Southwest 393 452 40,000  Level Kansas Center
Thu 09:32:27 AM 37.7372 -91.7081 235° Southwest 393 452 40,000  Level Kansas Center
Thu 09:33:29 AM 37.6750 -91.8233 236° Southwest 394 453 40,000  Level Kansas Center
Thu 09:34:31 AM 37.6114 -91.9375 235° Southwest 395 455 40,000  Level Kansas Center
Thu 09:35:33 AM 37.5486 -92.0528 236° Southwest 395 455 40,000  Level Kansas Center
Thu 09:36:34 AM 37.4856 -92.1664 235° Southwest 393 452 40,000  Level Kansas Center
Thu 09:37:36 AM 37.4222 -92.2794 235° Southwest 391 450 40,000  Level Kansas Center
Thu 09:38:38 AM 37.3592 -92.3922 235° Southwest 391 450 40,000  Level Kansas Center
Thu 09:39:39 AM 37.2964 -92.5028 235° Southwest 388 447 40,000  Level Kansas Center
Thu 09:40:41 AM 37.2200 -92.6356 234° Southwest 389 448 40,000  Level Kansas Center
Thu 09:41:43 AM 37.1578 -92.7464 235° Southwest 387 445 40,000  Level Kansas Center
Thu 09:42:45 AM 37.0944 -92.8572 234° Southwest 389 448 40,000  Level Kansas Center
Thu 09:43:47 AM 37.0289 -92.9706 234° Southwest 396 456 40,000  Level Kansas Center
Thu 09:44:48 AM 36.9639 -93.0856 235° Southwest 400 460 40,000  Level Kansas Center
Thu 09:45:50 AM 36.8981 -93.1986 234° Southwest 402 463 40,000  Level Kansas Center
Thu 09:46:08 AM 36.8733 -93.2511 240° Southwest 401 461 40,000  Level Memphis Center
Thu 09:47:08 AM 36.8061 -93.3653 234° Southwest 401 461 40,000  Level Memphis Center
Thu 09:47:54 AM 36.7619 -93.4378 233° Southwest 408 470 40,000  Level Kansas Center
Thu 09:48:56 AM 36.6939 -93.5542 234° Southwest 414 476 40,000  Level Kansas Center
Thu 09:49:58 AM 36.6267 -93.6706 234° Southwest 416 479 40,000  Level Kansas Center
Thu 09:51:00 AM 36.5544 -93.7969 235° Southwest 419 482 40,000  Level Kansas Center
Thu 09:52:02 AM 36.4853 -93.9153 234° Southwest 420 483 40,000  Level Kansas Center
Thu 09:53:04 AM 36.4011 -94.0581 234° Southwest 424 488 40,000  Level Kansas Center
Thu 09:54:06 AM 36.3303 -94.1786 234° Southwest 427 491 40,000  Level Kansas Center
Thu 09:55:08 AM 36.2547 -94.3050 233° Southwest 427 491 40,000  Level Memphis Center
Thu 09:56:08 AM 36.1819 -94.4250 233° Southwest 427 491 40,000  Level Memphis Center
Thu 09:57:08 AM 36.1133 -94.5447 235° Southwest 433 498 40,000  Level Memphis Center
Thu 09:58:08 AM 36.0406 -94.6642 233° Southwest 438 504 40,000  Level Memphis Center
Thu 09:59:08 AM 35.9717 -94.7839 235° Southwest 438 504 40,000  Level Memphis Center
Thu 10:00:08 AM 35.8964 -94.9053 233° Southwest 438 504 40,000 -1,266 Level Memphis Center
Thu 10:02:46 AM 35.7103 -95.2178 234° Southwest 429 494 35,400 -2,037 Descending Fort Center
Thu 10:03:46 AM 35.6372 -95.3347 232° Southwest 435 501 32,600 -3,050 Descending Fort Center
Thu 10:04:46 AM 35.5642 -95.4564 234° Southwest 440 506 29,300 -3,300 Descending Fort Center
Thu 10:05:46 AM 35.4928 -95.5753 234° Southwest 445 512 26,000 -3,150 Descending Fort Center
Thu 10:06:46 AM 35.4194 -95.6942 233° Southwest 445 512 23,000 -2,900 Descending Fort Center
Thu 10:07:46 AM 35.3333 -95.7900 222° Southwest 435 501 20,200 -2,500 Descending Fort Center
Thu 10:08:46 AM 35.2675 -95.8625 222° Southwest 419 482 18,000 -2,500 Descending Fort Center
Thu 10:09:46 AM 35.1808 -95.9531 221° Southwest 396 456 15,200 -2,450 Descending Fort Center
Thu 10:10:46 AM 35.1089 -96.0381 224° Southwest 374 430 13,100 -1,950 Descending Fort Center
Thu 10:11:46 AM 35.0450 -96.1125 224° Southwest 348 400 11,300 -1,785 Descending Fort Center
Thu 10:12:47 AM 34.9917 -96.1919 231° Southwest 320 368 9,500 -1,550 Descending Fort Center
Thu 10:13:46 AM 34.9861 -96.2858 266° West 281 323 8,200 -1,462 Descending Fort Center
Thu 10:14:46 AM 34.9889 -96.3769 272° West 271 312 6,600 -1,600 Descending Fort Center
Thu 10:15:46 AM 34.9897 -96.4683 271° West 271 312 5,000 -1,650 Descending Fort Center
Thu 10:16:46 AM 34.9903 -96.5569 270° West 271 312 3,300 -1,000 Descending Fort Center
Thu 10:17:46 AM 34.9889 -96.6306 269° West 253 291 3,000 -250 Descending Fort Center
Thu 10:18:46 AM 34.9619 -96.6764 234° Southwest 181 208 2,800 -200 Descending Fort Center
Thu 10:19:46 AM 34.9161 -96.6767 180° South 140 161 2,600 -250 Descending Fort Center
Thu 10:20:46 AM 34.8786 -96.6769 180° South 140 161 2,300 -450 Descending Fort Center
Thu 10:21:46 AM 34.8408 -96.6772 180° South 140 161 1,700 -450 Descending Fort Center
Thu 10:22:46 AM 34.8097 -96.6775 180° South 140 161 1,400 -150 Descending Fort Center
Thu 10:23:46 AM 34.8056 -96.6700 124° Southeast 140 161 1,400 1,300 Level Fort Center
Thu 10:24:46 AM 34.8056 -96.6700 180° South 140 161 4,000 2,600 Climbing Fort Center

Login

Don't have an account? Register now (free) for customized features, flight alerts, and more!